createdAt,value
2023-06-30T00:00:13.976Z,19.72
2023-06-30T00:03:07.256Z,19.73
2023-06-30T00:05:39.736Z,19.72
2023-06-30T00:08:12.740Z,19.69
2023-06-30T00:10:45.126Z,19.65
2023-06-30T00:13:17.690Z,19.58
2023-06-30T00:15:51.005Z,19.54
2023-06-30T00:18:25.682Z,19.49
2023-06-30T00:20:58.726Z,19.43
2023-06-30T00:23:32.001Z,19.44
2023-06-30T00:26:04.768Z,19.44
2023-06-30T00:28:38.336Z,19.47
2023-06-30T00:31:11.205Z,19.44
2023-06-30T00:33:43.644Z,19.36
2023-06-30T00:36:16.354Z,19.36
2023-06-30T00:38:51.189Z,19.35
2023-06-30T00:41:24.559Z,19.31
2023-06-30T00:43:57.167Z,19.34
2023-06-30T00:46:30.218Z,19.32
2023-06-30T00:49:03.418Z,19.34
2023-06-30T00:51:36.186Z,19.31
2023-06-30T00:54:09.121Z,19.31
2023-06-30T00:56:41.909Z,19.28
2023-06-30T00:59:14.551Z,19.26
2023-06-30T01:01:55.026Z,19.24
2023-06-30T01:04:37.636Z,19.20
2023-06-30T01:07:17.363Z,19.18
2023-06-30T01:09:55.149Z,19.17
2023-06-30T01:12:29.618Z,19.13
2023-06-30T01:15:04.090Z,19.07
2023-06-30T01:17:47.557Z,19.02
2023-06-30T01:20:22.428Z,18.94
2023-06-30T01:22:59.259Z,18.91
2023-06-30T01:25:32.997Z,18.83
2023-06-30T01:28:07.560Z,18.77
2023-06-30T01:30:41.411Z,18.73
2023-06-30T01:33:15.364Z,18.74
2023-06-30T01:35:48.233Z,18.69
2023-06-30T01:38:21.500Z,18.62
2023-06-30T01:40:54.495Z,18.58
2023-06-30T01:43:28.341Z,18.50
2023-06-30T01:46:01.331Z,18.42
2023-06-30T01:48:35.088Z,18.38
2023-06-30T01:51:11.209Z,18.38
2023-06-30T01:53:44.946Z,18.41
2023-06-30T01:56:17.705Z,18.46
2023-06-30T01:58:51.172Z,18.47
2023-06-30T02:01:24.417Z,18.32
2023-06-30T02:03:57.679Z,18.19
2023-06-30T02:06:30.657Z,18.07
2023-06-30T02:09:04.597Z,17.97
2023-06-30T02:11:37.291Z,17.96
2023-06-30T02:14:10.354Z,17.96
2023-06-30T02:16:45.029Z,17.93
2023-06-30T02:19:18.821Z,17.92
2023-06-30T02:21:52.135Z,17.90
2023-06-30T02:24:25.317Z,17.85
2023-06-30T02:26:59.037Z,17.88
2023-06-30T02:29:32.645Z,17.93
2023-06-30T02:32:06.278Z,17.96
2023-06-30T02:34:40.181Z,18.01
2023-06-30T02:37:13.764Z,18.00
2023-06-30T02:39:46.632Z,17.96
2023-06-30T02:42:19.372Z,17.90
2023-06-30T02:44:53.190Z,17.82
2023-06-30T02:47:26.210Z,17.71
2023-06-30T02:49:59.713Z,17.57
2023-06-30T02:52:32.953Z,17.47
2023-06-30T02:55:07.493Z,17.45
2023-06-30T02:57:40.780Z,17.41
2023-06-30T03:00:18.762Z,17.43
2023-06-30T03:02:52.318Z,17.48
2023-06-30T03:05:26.094Z,17.50
2023-06-30T03:07:59.529Z,17.48
2023-06-30T03:10:33.209Z,17.47
2023-06-30T03:13:07.502Z,17.43
2023-06-30T03:15:40.598Z,17.39
2023-06-30T03:18:14.314Z,17.35
2023-06-30T03:20:46.818Z,17.31
2023-06-30T03:23:20.309Z,17.25
2023-06-30T03:25:53.421Z,17.15
2023-06-30T03:28:27.423Z,17.11
2023-06-30T03:31:00.237Z,17.08
2023-06-30T03:33:33.350Z,17.08
2023-06-30T03:36:06.336Z,17.12
2023-06-30T03:38:38.916Z,17.14
2023-06-30T03:41:11.689Z,17.13
2023-06-30T03:43:44.492Z,17.11
2023-06-30T03:46:17.998Z,17.12
2023-06-30T03:48:51.497Z,17.09
2023-06-30T03:51:24.392Z,17.10
2023-06-30T03:53:58.677Z,17.14
2023-06-30T03:56:31.735Z,17.19
2023-06-30T03:59:04.954Z,17.24
2023-06-30T04:01:38.023Z,17.28
2023-06-30T04:04:12.060Z,17.32
2023-06-30T04:06:46.075Z,17.36
2023-06-30T04:09:18.875Z,17.37
2023-06-30T04:11:52.266Z,17.37
2023-06-30T04:14:24.797Z,17.41
2023-06-30T04:16:59.429Z,17.47
2023-06-30T04:19:32.197Z,17.54
2023-06-30T04:22:05.595Z,17.58
2023-06-30T04:24:38.642Z,17.61
2023-06-30T04:27:12.385Z,17.66
2023-06-30T04:29:44.928Z,17.71
2023-06-30T04:32:17.471Z,17.79
2023-06-30T04:34:50.278Z,17.88
2023-06-30T04:37:24.435Z,17.96
2023-06-30T04:39:57.198Z,18.05
2023-06-30T04:42:29.705Z,18.14
2023-06-30T04:45:02.369Z,18.23
2023-06-30T04:47:34.965Z,18.29
2023-06-30T04:50:09.013Z,18.37
2023-06-30T04:52:41.529Z,18.45
2023-06-30T04:55:14.191Z,18.53
2023-06-30T04:57:46.467Z,18.65
2023-06-30T05:00:20.052Z,18.73
2023-06-30T05:02:52.532Z,18.80
2023-06-30T05:05:25.813Z,18.84
2023-06-30T05:07:59.145Z,18.91
2023-06-30T05:10:32.821Z,18.97
2023-06-30T05:13:06.067Z,19.03
2023-06-30T05:15:39.025Z,19.08
2023-06-30T05:18:11.790Z,19.17
2023-06-30T05:20:44.354Z,19.24
2023-06-30T05:23:16.743Z,19.33
2023-06-30T05:25:49.105Z,19.41
2023-06-30T05:28:21.768Z,19.49
2023-06-30T05:30:54.379Z,19.57
2023-06-30T05:33:28.176Z,19.64
2023-06-30T05:36:00.530Z,19.71
2023-06-30T05:38:34.357Z,19.76
2023-06-30T05:41:06.731Z,19.83
2023-06-30T05:43:41.554Z,19.89
2023-06-30T05:46:15.110Z,19.97
2023-06-30T05:48:48.181Z,20.04
2023-06-30T05:51:21.371Z,20.11
2023-06-30T05:53:54.260Z,20.20
2023-06-30T05:56:26.615Z,20.28
2023-06-30T05:59:00.477Z,20.36
2023-06-30T06:01:33.369Z,20.44
2023-06-30T06:04:07.203Z,20.52
2023-06-30T06:06:40.885Z,20.61
2023-06-30T06:09:14.546Z,20.68
2023-06-30T06:11:48.080Z,20.75
2023-06-30T06:14:20.869Z,20.84
2023-06-30T06:16:53.414Z,20.90
2023-06-30T06:19:25.767Z,20.98
2023-06-30T06:21:58.224Z,21.06
2023-06-30T06:24:30.487Z,21.15
2023-06-30T06:27:02.926Z,21.27
2023-06-30T06:29:35.913Z,21.37
2023-06-30T06:32:09.898Z,21.45
2023-06-30T06:34:42.230Z,21.52
2023-06-30T06:37:14.597Z,21.62
2023-06-30T06:39:46.981Z,21.71
2023-06-30T06:42:19.235Z,21.83
2023-06-30T06:44:51.719Z,21.94
2023-06-30T06:47:58.939Z,22.02
2023-06-30T06:50:31.523Z,22.15
2023-06-30T06:53:04.107Z,22.29
2023-06-30T06:55:36.628Z,22.43
2023-06-30T06:58:09.577Z,22.56
2023-06-30T07:00:41.971Z,22.69
2023-06-30T07:03:14.270Z,22.81
2023-06-30T07:05:47.634Z,23.00
2023-06-30T07:08:21.359Z,23.16
2023-06-30T07:10:54.658Z,23.31
2023-06-30T07:13:27.282Z,23.47
2023-06-30T07:15:59.844Z,23.63
2023-06-30T07:18:33.899Z,23.75
2023-06-30T07:21:06.927Z,23.92
2023-06-30T07:23:39.155Z,24.15
2023-06-30T07:26:11.963Z,24.38
2023-06-30T07:28:44.554Z,24.56
2023-06-30T07:31:17.153Z,24.65
2023-06-30T07:33:49.534Z,24.80
2023-06-30T07:36:22.024Z,24.98
2023-06-30T07:38:54.525Z,25.14
2023-06-30T07:41:27.128Z,25.22
2023-06-30T07:44:00.437Z,25.47
2023-06-30T07:46:35.368Z,25.70
2023-06-30T07:49:07.934Z,25.79
2023-06-30T07:51:40.572Z,25.88
2023-06-30T07:54:13.002Z,26.04
2023-06-30T07:56:46.885Z,26.13
2023-06-30T07:59:19.121Z,26.27
2023-06-30T08:01:51.760Z,26.57
2023-06-30T08:04:24.420Z,26.80
2023-06-30T08:06:56.926Z,26.96
2023-06-30T08:09:29.187Z,27.07
2023-06-30T08:12:01.803Z,27.22
2023-06-30T08:14:34.634Z,27.45
2023-06-30T08:17:07.225Z,27.47
2023-06-30T08:19:47.976Z,27.45
2023-06-30T08:22:22.466Z,27.41
2023-06-30T08:24:56.224Z,27.42
2023-06-30T08:27:28.451Z,27.56
2023-06-30T08:30:00.748Z,27.78
2023-06-30T08:32:33.133Z,28.02
2023-06-30T08:35:05.577Z,28.04
2023-06-30T08:37:37.953Z,28.11
2023-06-30T08:40:13.400Z,28.34
2023-06-30T08:42:51.496Z,28.53
2023-06-30T08:45:25.916Z,28.96
2023-06-30T08:48:02.140Z,29.13
2023-06-30T08:50:35.506Z,29.32
2023-06-30T08:53:08.692Z,29.56
2023-06-30T08:55:42.044Z,29.86
2023-06-30T08:58:25.652Z,29.58
2023-06-30T09:00:59.007Z,29.61
2023-06-30T09:03:32.979Z,29.60
2023-06-30T09:06:05.641Z,29.70
2023-06-30T09:08:48.608Z,30.10
2023-06-30T09:11:22.269Z,30.26
2023-06-30T09:14:02.200Z,30.22
2023-06-30T09:16:35.200Z,30.07
2023-06-30T09:19:08.066Z,30.21
2023-06-30T09:21:41.163Z,30.54
2023-06-30T09:24:13.827Z,30.93
2023-06-30T09:26:46.465Z,31.13
2023-06-30T09:29:23.489Z,31.24
2023-06-30T09:32:02.342Z,31.00
2023-06-30T09:34:34.838Z,30.68
2023-06-30T09:37:12.437Z,30.46
2023-06-30T09:39:51.622Z,30.58
2023-06-30T09:42:24.562Z,30.82
2023-06-30T09:44:57.833Z,31.25
2023-06-30T09:47:31.749Z,31.54
2023-06-30T09:50:04.430Z,31.66
2023-06-30T09:52:38.795Z,31.73
2023-06-30T09:55:13.509Z,31.61
2023-06-30T09:57:47.384Z,31.79
2023-06-30T10:00:33.913Z,31.96
2023-06-30T10:03:10.010Z,32.07
2023-06-30T10:05:42.716Z,32.25
2023-06-30T10:08:16.086Z,31.99
2023-06-30T10:10:48.975Z,31.42
2023-06-30T10:13:23.473Z,31.32
2023-06-30T10:15:56.426Z,31.24
2023-06-30T10:18:29.095Z,31.17
2023-06-30T10:21:01.514Z,31.13
2023-06-30T10:23:35.827Z,31.41
2023-06-30T10:26:10.071Z,31.55
2023-06-30T10:28:42.547Z,31.67
2023-06-30T10:31:14.959Z,31.89
2023-06-30T10:33:47.634Z,31.74
2023-06-30T10:36:20.940Z,31.56
2023-06-30T10:38:55.288Z,31.59
2023-06-30T10:41:27.717Z,31.81
2023-06-30T10:44:13.436Z,31.83
2023-06-30T10:46:48.477Z,31.50
2023-06-30T10:49:28.860Z,31.24
2023-06-30T10:52:04.848Z,31.19
2023-06-30T10:54:44.350Z,31.15
2023-06-30T10:57:21.008Z,31.03
2023-06-30T11:00:07.973Z,30.81
2023-06-30T11:02:48.574Z,30.69
2023-06-30T11:05:27.304Z,30.66
2023-06-30T11:08:08.687Z,30.48
2023-06-30T11:10:46.659Z,30.23
2023-06-30T11:13:37.539Z,29.99
2023-06-30T11:16:11.262Z,29.70
2023-06-30T11:18:45.752Z,29.25
2023-06-30T11:21:18.148Z,29.00
2023-06-30T11:23:51.842Z,28.85
2023-06-30T11:26:25.686Z,28.60
2023-06-30T11:28:58.160Z,28.36
2023-06-30T11:31:38.127Z,28.26
2023-06-30T11:34:10.670Z,28.28
2023-06-30T11:36:42.872Z,28.25
2023-06-30T11:39:17.873Z,28.22
2023-06-30T11:41:50.157Z,28.29
2023-06-30T11:44:22.624Z,28.37
2023-06-30T11:46:58.644Z,28.37
2023-06-30T11:49:36.449Z,28.33
2023-06-30T11:52:10.324Z,28.34
2023-06-30T11:54:43.639Z,28.34
2023-06-30T11:57:15.928Z,28.24
2023-06-30T11:59:50.329Z,28.21
2023-06-30T12:02:22.760Z,28.25
2023-06-30T12:04:55.641Z,28.30
2023-06-30T12:07:28.214Z,28.32
2023-06-30T12:10:07.509Z,28.36
2023-06-30T12:12:40.075Z,28.32
2023-06-30T12:15:15.988Z,28.19
2023-06-30T12:17:48.736Z,28.11
2023-06-30T12:20:32.064Z,28.01
2023-06-30T12:23:05.406Z,27.93
2023-06-30T12:25:38.789Z,27.92
2023-06-30T12:28:13.972Z,27.92
2023-06-30T12:30:47.790Z,27.88
2023-06-30T12:33:24.504Z,27.80
2023-06-30T12:35:56.794Z,27.69
2023-06-30T12:38:29.326Z,27.68
2023-06-30T12:41:01.841Z,27.72
2023-06-30T12:43:35.042Z,27.75
2023-06-30T12:46:07.872Z,27.80
2023-06-30T12:48:40.155Z,27.87
2023-06-30T12:51:12.518Z,27.95
2023-06-30T12:53:44.804Z,27.99
2023-06-30T12:56:17.648Z,28.05
2023-06-30T12:58:50.248Z,28.10
2023-06-30T13:01:22.637Z,28.11
2023-06-30T13:03:55.098Z,28.11
2023-06-30T13:06:27.786Z,28.08
2023-06-30T13:09:00.222Z,28.08
2023-06-30T13:11:32.921Z,28.06
2023-06-30T13:14:05.118Z,28.03
2023-06-30T13:16:38.008Z,27.99
2023-06-30T13:19:11.841Z,27.98
2023-06-30T13:21:44.114Z,28.03
2023-06-30T13:24:16.356Z,28.08
2023-06-30T13:26:48.601Z,28.10
2023-06-30T13:29:20.926Z,28.06
2023-06-30T13:31:53.398Z,28.05
2023-06-30T13:34:26.269Z,28.00
2023-06-30T13:36:58.540Z,28.01
2023-06-30T13:39:31.119Z,28.05
2023-06-30T13:42:03.985Z,28.08
2023-06-30T13:44:37.908Z,28.09
2023-06-30T13:47:10.429Z,28.11
2023-06-30T13:49:42.634Z,28.11
2023-06-30T13:52:15.074Z,28.10
2023-06-30T13:54:47.249Z,28.12
2023-06-30T13:57:20.366Z,28.15
2023-06-30T13:59:53.274Z,28.14
2023-06-30T14:02:25.576Z,28.13
2023-06-30T14:04:59.438Z,28.17
2023-06-30T14:07:32.258Z,28.22
2023-06-30T14:10:05.683Z,28.23
2023-06-30T14:12:38.084Z,28.23
2023-06-30T14:15:12.335Z,28.25
2023-06-30T14:17:44.488Z,28.27
2023-06-30T14:20:17.019Z,28.25
2023-06-30T14:22:49.356Z,28.26
2023-06-30T14:25:24.185Z,28.26
2023-06-30T14:27:56.552Z,28.29
2023-06-30T14:30:33.297Z,28.32
2023-06-30T14:33:05.945Z,28.36
2023-06-30T14:35:38.155Z,28.35
2023-06-30T14:38:10.448Z,28.31
2023-06-30T14:40:43.022Z,28.30
2023-06-30T14:43:15.374Z,28.34
2023-06-30T14:45:48.004Z,28.37
2023-06-30T14:48:20.617Z,28.41
2023-06-30T14:50:52.843Z,28.39
2023-06-30T14:53:25.339Z,28.38
2023-06-30T14:55:58.940Z,28.41
2023-06-30T14:58:31.216Z,28.45
2023-06-30T15:01:03.732Z,28.49
2023-06-30T15:03:37.041Z,28.51
2023-06-30T15:06:09.223Z,28.45
2023-06-30T15:08:42.004Z,28.48
2023-06-30T15:11:14.345Z,28.49
2023-06-30T15:13:46.726Z,28.48
2023-06-30T15:16:19.316Z,28.42
2023-06-30T15:18:51.715Z,28.40
2023-06-30T15:21:24.176Z,28.41
2023-06-30T15:23:56.507Z,28.45
2023-06-30T15:26:29.593Z,28.51
2023-06-30T15:29:02.050Z,28.60
2023-06-30T15:31:34.530Z,28.66
2023-06-30T15:34:06.802Z,28.74
2023-06-30T15:36:39.025Z,28.79
2023-06-30T15:39:11.635Z,28.81
2023-06-30T15:41:45.880Z,28.83
2023-06-30T15:44:18.208Z,28.87
2023-06-30T15:46:51.185Z,28.88
2023-06-30T15:49:23.904Z,28.89
2023-06-30T15:51:56.464Z,28.95
2023-06-30T15:54:28.849Z,28.94
2023-06-30T15:57:01.107Z,28.90
2023-06-30T15:59:33.420Z,28.94
2023-06-30T16:02:07.775Z,29.00
2023-06-30T16:04:39.983Z,29.08
2023-06-30T16:07:12.432Z,29.09
2023-06-30T16:09:44.784Z,29.04
2023-06-30T16:12:17.545Z,29.09
2023-06-30T16:14:49.794Z,29.07
2023-06-30T16:17:22.237Z,29.04
2023-06-30T16:19:54.495Z,29.06
2023-06-30T16:22:26.703Z,29.05
2023-06-30T16:24:59.036Z,28.98
2023-06-30T16:27:31.322Z,28.89
2023-06-30T16:30:24.944Z,28.86
2023-06-30T16:33:00.192Z,28.82
2023-06-30T16:35:34.565Z,28.80
2023-06-30T16:38:07.390Z,28.71
2023-06-30T16:40:39.891Z,28.63
2023-06-30T16:43:12.196Z,28.61
2023-06-30T16:45:44.964Z,28.56
2023-06-30T16:48:17.653Z,28.51
2023-06-30T16:50:50.087Z,28.44
2023-06-30T16:53:23.555Z,28.36
2023-06-30T16:55:57.326Z,28.32
2023-06-30T16:58:31.117Z,28.29
2023-06-30T17:01:03.540Z,28.25
2023-06-30T17:03:35.959Z,28.17
2023-06-30T17:06:08.539Z,28.12
2023-06-30T17:08:40.996Z,28.06
2023-06-30T17:11:13.384Z,28.02
2023-06-30T17:13:45.897Z,27.98
2023-06-30T17:16:18.210Z,27.95
2023-06-30T17:18:50.691Z,27.91
2023-06-30T17:21:22.957Z,27.87
2023-06-30T17:23:55.305Z,27.83
2023-06-30T17:26:27.692Z,27.83
2023-06-30T17:28:59.730Z,27.79
2023-06-30T17:31:32.230Z,27.76
2023-06-30T17:34:05.047Z,27.73
2023-06-30T17:36:37.838Z,27.72
2023-06-30T17:39:10.150Z,27.70
2023-06-30T17:41:42.797Z,27.67
2023-06-30T17:44:15.078Z,27.63
2023-06-30T17:46:47.331Z,27.62
2023-06-30T17:49:28.451Z,27.57
2023-06-30T17:52:00.919Z,27.51
2023-06-30T17:54:33.809Z,27.45
2023-06-30T17:57:06.744Z,27.39
2023-06-30T17:59:38.908Z,27.31
2023-06-30T18:02:11.481Z,27.24
2023-06-30T18:04:43.859Z,27.14
2023-06-30T18:07:16.141Z,27.05
2023-06-30T18:09:48.748Z,26.96
2023-06-30T18:12:21.655Z,26.86
2023-06-30T18:14:53.979Z,26.78
2023-06-30T18:17:26.362Z,26.70
2023-06-30T18:19:58.690Z,26.64
2023-06-30T18:22:31.154Z,26.57
2023-06-30T18:25:03.561Z,26.50
2023-06-30T18:27:35.966Z,26.44
2023-06-30T18:30:10.233Z,26.37
2023-06-30T18:32:42.931Z,26.32
2023-06-30T18:35:15.398Z,26.25
2023-06-30T18:37:47.635Z,26.20
2023-06-30T18:40:19.882Z,26.13
2023-06-30T18:42:52.525Z,26.08
2023-06-30T18:45:25.016Z,26.01
2023-06-30T18:47:57.487Z,25.96
2023-06-30T18:50:29.897Z,25.90
2023-06-30T18:53:02.161Z,25.82
2023-06-30T18:55:34.687Z,25.76
2023-06-30T18:58:06.989Z,25.70
2023-06-30T19:00:39.265Z,25.64
2023-06-30T19:03:15.709Z,25.59
2023-06-30T19:05:48.848Z,25.53
2023-06-30T19:08:21.524Z,25.46
2023-06-30T19:10:53.723Z,25.41
2023-06-30T19:13:26.402Z,25.36
2023-06-30T19:15:58.640Z,25.31
2023-06-30T19:18:31.039Z,25.27
2023-06-30T19:21:03.667Z,25.22
2023-06-30T19:23:37.380Z,25.19
2023-06-30T19:26:09.917Z,25.12
2023-06-30T19:28:44.554Z,25.05
2023-06-30T19:31:17.229Z,24.99
2023-06-30T19:33:49.828Z,24.94
2023-06-30T19:36:22.472Z,24.89
2023-06-30T19:38:54.691Z,24.84
2023-06-30T19:41:28.104Z,24.79
2023-06-30T19:44:00.635Z,24.73
2023-06-30T19:46:34.646Z,24.67
2023-06-30T19:49:07.783Z,24.62
2023-06-30T19:51:40.378Z,24.57
2023-06-30T19:54:13.857Z,24.51
2023-06-30T19:56:46.213Z,24.47
2023-06-30T19:59:19.113Z,24.42
2023-06-30T20:01:55.958Z,24.38
2023-06-30T20:04:29.720Z,24.34
2023-06-30T20:07:02.050Z,24.28
2023-06-30T20:09:35.157Z,24.23
2023-06-30T20:12:08.914Z,24.17
2023-06-30T20:14:41.221Z,24.12
2023-06-30T20:17:13.472Z,24.02
2023-06-30T20:19:46.240Z,23.95
2023-06-30T20:22:18.770Z,23.94
2023-06-30T20:24:51.300Z,23.93
2023-06-30T20:27:23.674Z,23.91
2023-06-30T20:29:56.782Z,23.91
2023-06-30T20:32:29.191Z,23.91
2023-06-30T20:35:01.471Z,23.92
2023-06-30T20:37:33.764Z,23.92
2023-06-30T20:40:08.615Z,23.91
2023-06-30T20:42:41.072Z,23.88
2023-06-30T20:45:13.653Z,23.82
2023-06-30T20:47:46.004Z,23.80
2023-06-30T20:50:18.513Z,23.80
2023-06-30T20:52:50.836Z,23.81
2023-06-30T20:55:23.375Z,23.83
2023-06-30T20:57:55.996Z,23.80
2023-06-30T21:00:29.101Z,23.77
2023-06-30T21:03:01.503Z,23.73
2023-06-30T21:05:34.143Z,23.69
2023-06-30T21:08:06.825Z,23.63
2023-06-30T21:10:39.063Z,23.59
2023-06-30T21:13:11.290Z,23.55
2023-06-30T21:15:43.726Z,23.51
2023-06-30T21:18:16.973Z,23.49
2023-06-30T21:20:49.595Z,23.48
2023-06-30T21:23:22.044Z,23.45
2023-06-30T21:25:55.015Z,23.43
2023-06-30T21:28:27.321Z,23.41
2023-06-30T21:31:01.987Z,23.38
2023-06-30T21:33:34.400Z,23.35
2023-06-30T21:36:07.262Z,23.30
2023-06-30T21:38:40.095Z,23.25
2023-06-30T21:41:12.592Z,23.21
2023-06-30T21:43:45.110Z,23.18
2023-06-30T21:46:18.623Z,23.15
2023-06-30T21:48:51.299Z,23.12
2023-06-30T21:51:23.587Z,23.10
2023-06-30T21:53:57.030Z,23.07
2023-06-30T21:56:29.285Z,23.05
2023-06-30T21:59:03.062Z,23.01
2023-06-30T22:01:41.325Z,22.97
2023-06-30T22:04:14.523Z,22.95
2023-06-30T22:06:48.466Z,22.94
2023-06-30T22:09:20.851Z,22.88
2023-06-30T22:11:53.142Z,22.83
2023-06-30T22:14:26.094Z,22.77
2023-06-30T22:16:58.671Z,22.70
2023-06-30T22:19:31.022Z,22.67
2023-06-30T22:22:03.719Z,22.62
2023-06-30T22:24:36.119Z,22.60
2023-06-30T22:27:09.503Z,22.56
2023-06-30T22:29:41.906Z,22.54
2023-06-30T22:32:15.605Z,22.51
2023-06-30T22:34:49.427Z,22.49
2023-06-30T22:37:22.042Z,22.48
2023-06-30T22:39:54.497Z,22.45
2023-06-30T22:42:26.797Z,22.41
2023-06-30T22:44:59.178Z,22.40
2023-06-30T22:47:31.499Z,22.39
2023-06-30T22:50:03.967Z,22.38
2023-06-30T22:52:36.423Z,22.38
2023-06-30T22:55:09.940Z,22.35
2023-06-30T22:57:42.211Z,22.36
2023-06-30T23:00:16.896Z,22.34
2023-06-30T23:02:49.418Z,22.31
2023-06-30T23:05:22.583Z,22.29
2023-06-30T23:07:54.994Z,22.26
2023-06-30T23:10:27.260Z,22.20
2023-06-30T23:12:59.802Z,22.16
2023-06-30T23:15:32.261Z,22.12
2023-06-30T23:18:06.680Z,22.06
2023-06-30T23:20:39.004Z,22.06
2023-06-30T23:23:11.585Z,22.03
2023-06-30T23:25:43.945Z,21.98
2023-06-30T23:28:19.210Z,21.94
2023-06-30T23:30:52.078Z,21.94
2023-06-30T23:33:24.860Z,21.91
2023-06-30T23:35:57.140Z,21.91
2023-06-30T23:38:29.367Z,21.89
2023-06-30T23:41:01.637Z,21.87
2023-06-30T23:43:34.003Z,21.88
2023-06-30T23:46:06.496Z,21.88
2023-06-30T23:48:38.829Z,21.81
2023-06-30T23:51:11.328Z,21.71
2023-06-30T23:53:43.588Z,21.67
2023-06-30T23:56:15.927Z,21.62
2023-06-30T23:58:48.362Z,21.60
